createdAt,value
2017-08-19T00:00:07.565Z,999.4
2017-08-19T00:01:08.591Z,999.3
2017-08-19T00:02:09.402Z,999.4
2017-08-19T00:03:10.134Z,999.4
2017-08-19T00:04:10.952Z,999.4
2017-08-19T00:05:11.760Z,999.4
2017-08-19T00:06:12.894Z,999.5
2017-08-19T00:07:13.630Z,999.5
2017-08-19T00:08:14.364Z,999.5
2017-08-19T00:09:15.181Z,999.5
2017-08-19T00:10:15.919Z,999.5
2017-08-19T00:11:16.670Z,999.5
2017-08-19T00:12:17.412Z,999.5
2017-08-19T00:13:18.390Z,999.5
2017-08-19T00:14:19.126Z,999.5
2017-08-19T00:15:19.921Z,999.5
2017-08-19T00:16:20.665Z,999.5
2017-08-19T00:17:21.471Z,999.5
2017-08-19T00:18:22.410Z,999.5
2017-08-19T00:19:23.203Z,999.5
2017-08-19T00:20:24.027Z,999.5
2017-08-19T00:21:24.756Z,999.5
2017-08-19T00:22:25.560Z,999.5
2017-08-19T00:23:26.394Z,999.5
2017-08-19T00:24:27.129Z,999.5
2017-08-19T00:25:28.177Z,999.5
2017-08-19T00:26:28.969Z,999.5
2017-08-19T00:27:29.710Z,999.5
2017-08-19T00:28:30.463Z,999.5
2017-08-19T00:29:31.188Z,999.5
2017-08-19T00:30:32.200Z,999.6
2017-08-19T00:31:33.010Z,999.5
2017-08-19T00:32:33.736Z,999.5
2017-08-19T00:33:34.541Z,999.6
2017-08-19T00:34:35.333Z,999.6
2017-08-19T00:35:36.522Z,999.6
2017-08-19T00:36:37.340Z,999.6
2017-08-19T00:37:38.075Z,999.6
2017-08-19T00:38:38.888Z,999.7
2017-08-19T00:39:39.614Z,999.6
2017-08-19T00:40:40.639Z,999.6
2017-08-19T00:41:41.365Z,999.6
2017-08-19T00:42:42.100Z,999.7
2017-08-19T00:43:42.836Z,999.7
2017-08-19T00:44:43.569Z,999.6
2017-08-19T00:45:44.560Z,999.7
2017-08-19T00:46:45.299Z,999.6
2017-08-19T00:47:46.035Z,999.6
2017-08-19T00:48:46.771Z,999.6
2017-08-19T00:49:47.503Z,999.6
2017-08-19T00:50:48.561Z,999.6
2017-08-19T00:51:49.373Z,999.6
2017-08-19T00:52:50.110Z,999.6
2017-08-19T00:53:50.869Z,999.7
2017-08-19T00:54:51.612Z,999.6
2017-08-19T00:55:52.782Z,999.6
2017-08-19T00:56:53.582Z,999.6
2017-08-19T00:57:54.386Z,999.7
2017-08-19T00:58:55.121Z,999.6
2017-08-19T00:59:55.857Z,999.6
2017-08-19T01:00:57.129Z,999.7
2017-08-19T01:01:57.860Z,999.6
2017-08-19T01:02:58.595Z,999.6
2017-08-19T01:03:59.396Z,999.6
2017-08-19T01:05:00.200Z,999.6
2017-08-19T01:06:01.141Z,999.6
2017-08-19T01:07:01.969Z,999.7
2017-08-19T01:08:02.776Z,999.7
2017-08-19T01:09:03.539Z,999.7
2017-08-19T01:10:04.270Z,999.7
2017-08-19T01:11:05.303Z,999.7
2017-08-19T01:12:06.030Z,999.7
2017-08-19T01:13:06.767Z,999.7
2017-08-19T01:14:07.508Z,999.7
2017-08-19T01:15:08.304Z,999.7
2017-08-19T01:16:09.335Z,999.7
2017-08-19T01:17:10.070Z,999.7
2017-08-19T01:18:10.853Z,999.7
2017-08-19T01:19:11.589Z,999.7
2017-08-19T01:20:12.327Z,999.8
2017-08-19T01:21:13.531Z,999.8
2017-08-19T01:22:14.272Z,999.8
2017-08-19T01:23:15.092Z,999.7
2017-08-19T01:24:15.880Z,999.8
2017-08-19T01:25:16.628Z,999.7
2017-08-19T01:26:17.361Z,999.8
2017-08-19T01:27:18.093Z,999.7
2017-08-19T01:28:18.830Z,999.8
2017-08-19T01:29:19.643Z,999.8
2017-08-19T01:30:20.774Z,999.8
2017-08-19T01:31:21.514Z,999.9
2017-08-19T01:32:22.253Z,999.8
2017-08-19T01:33:22.988Z,999.8
2017-08-19T01:34:23.729Z,999.8
2017-08-19T01:35:24.669Z,999.8
2017-08-19T01:36:25.469Z,999.8
2017-08-19T01:37:26.195Z,999.9
2017-08-19T01:38:26.940Z,999.8
2017-08-19T01:39:27.678Z,999.8
2017-08-19T01:40:28.920Z,999.8
2017-08-19T01:41:29.661Z,999.8
2017-08-19T01:42:30.396Z,999.8
2017-08-19T01:43:31.203Z,999.8
2017-08-19T01:44:31.997Z,999.8
2017-08-19T01:45:33.128Z,999.8
2017-08-19T01:46:33.940Z,999.8
2017-08-19T01:47:34.675Z,999.9
2017-08-19T01:48:35.410Z,999.8
2017-08-19T01:49:36.237Z,999.9
2017-08-19T01:50:37.284Z,999.9
2017-08-19T01:51:38.025Z,999.9
2017-08-19T01:52:38.761Z,999.9
2017-08-19T01:53:39.495Z,999.9
2017-08-19T01:54:40.234Z,999.8
2017-08-19T01:55:41.300Z,999.8
2017-08-19T01:56:42.029Z,999.9
2017-08-19T01:57:42.763Z,999.8
2017-08-19T01:58:43.501Z,999.8
2017-08-19T01:59:44.244Z,999.8
2017-08-19T02:00:45.232Z,999.9
2017-08-19T02:01:46.045Z,999.9
2017-08-19T02:02:46.789Z,999.9
2017-08-19T02:03:47.600Z,999.9
2017-08-19T02:04:48.331Z,999.9
2017-08-19T02:05:49.469Z,999.9
2017-08-19T02:06:50.214Z,999.9
2017-08-19T02:07:51.024Z,999.9
2017-08-19T02:08:51.832Z,999.9
2017-08-19T02:09:52.655Z,999.9
2017-08-19T02:10:53.433Z,999.9
2017-08-19T02:11:54.533Z,999.9
2017-08-19T02:12:55.273Z,999.9
2017-08-19T02:13:56.070Z,999.9
2017-08-19T02:14:56.750Z,999.9
2017-08-19T02:15:57.482Z,1000.0
2017-08-19T02:16:58.227Z,999.9
2017-08-19T02:17:59.432Z,1000.0
2017-08-19T02:19:00.259Z,1000.0
2017-08-19T02:20:01.049Z,1000.0
2017-08-19T02:21:01.792Z,1000.0
2017-08-19T02:22:02.510Z,1000.0
2017-08-19T02:23:03.655Z,1000.0
2017-08-19T02:24:04.449Z,1000.0
2017-08-19T02:25:05.265Z,1000.1
2017-08-19T02:26:06.055Z,1000.0
2017-08-19T02:27:06.867Z,1000.1
2017-08-19T02:28:07.893Z,1000.0
2017-08-19T02:29:08.698Z,1000.1
2017-08-19T02:30:09.450Z,1000.1
2017-08-19T02:31:10.178Z,1000.1
2017-08-19T02:32:10.924Z,1000.1
2017-08-19T02:33:11.742Z,1000.1
2017-08-19T02:34:12.555Z,1000.1
2017-08-19T02:35:13.531Z,1000.1
2017-08-19T02:36:14.281Z,1000.1
2017-08-19T02:37:15.070Z,1000.1
2017-08-19T02:38:15.867Z,1000.1
2017-08-19T02:39:16.611Z,1000.1
2017-08-19T02:40:17.771Z,1000.1
2017-08-19T02:41:18.567Z,1000.1
2017-08-19T02:42:19.325Z,1000.1
2017-08-19T02:43:20.120Z,1000.2
2017-08-19T02:44:20.850Z,1000.2
2017-08-19T02:45:21.649Z,1000.2
2017-08-19T02:46:22.441Z,1000.2
2017-08-19T02:47:23.480Z,1000.2
2017-08-19T02:48:24.218Z,1000.1
2017-08-19T02:49:25.019Z,1000.1
2017-08-19T02:50:25.786Z,1000.1
2017-08-19T02:51:26.531Z,1000.1
2017-08-19T02:52:27.628Z,1000.1
2017-08-19T02:53:28.361Z,1000.1
2017-08-19T02:54:29.087Z,1000.1
2017-08-19T02:55:29.894Z,1000.1
2017-08-19T02:56:30.695Z,1000.1
2017-08-19T02:57:31.733Z,1000.1
2017-08-19T02:58:32.478Z,1000.1
2017-08-19T02:59:33.244Z,1000.1
2017-08-19T03:00:34.057Z,1000.1
2017-08-19T03:01:34.852Z,1000.1
2017-08-19T03:02:36.057Z,1000.1
2017-08-19T03:03:36.867Z,1000.1
2017-08-19T03:04:37.648Z,1000.1
2017-08-19T03:05:38.451Z,1000.1
2017-08-19T03:06:39.191Z,1000.1
2017-08-19T03:07:39.917Z,1000.0
2017-08-19T03:08:40.956Z,1000.1
2017-08-19T03:09:41.750Z,1000.0
2017-08-19T03:10:42.490Z,1000.0
2017-08-19T03:11:43.224Z,1000.1
2017-08-19T03:12:44.027Z,1000.1
2017-08-19T03:13:45.069Z,1000.1
2017-08-19T03:14:45.802Z,1000.1
2017-08-19T03:15:46.536Z,1000.1
2017-08-19T03:16:47.330Z,1000.1
2017-08-19T03:17:48.130Z,1000.1
2017-08-19T03:18:48.911Z,1000.1
2017-08-19T03:19:49.636Z,1000.1
2017-08-19T03:20:50.724Z,1000.1
2017-08-19T03:21:51.525Z,1000.1
2017-08-19T03:22:52.297Z,1000.2
2017-08-19T03:23:53.052Z,1000.2
2017-08-19T03:24:53.844Z,1000.1
2017-08-19T03:25:54.780Z,1000.2
2017-08-19T03:26:55.526Z,1000.2
2017-08-19T03:27:56.312Z,1000.2
2017-08-19T03:28:57.117Z,1000.2
2017-08-19T03:29:57.838Z,1000.2
2017-08-19T03:30:58.813Z,1000.2
2017-08-19T03:31:59.548Z,1000.2
2017-08-19T03:33:00.355Z,1000.2
2017-08-19T03:34:01.172Z,1000.2
2017-08-19T03:35:01.979Z,1000.2
2017-08-19T03:36:03.132Z,1000.2
2017-08-19T03:37:03.873Z,1000.2
2017-08-19T03:38:04.657Z,1000.2
2017-08-19T03:39:05.473Z,1000.2
2017-08-19T03:40:06.282Z,1000.2
2017-08-19T03:41:07.303Z,1000.2
2017-08-19T03:42:08.102Z,1000.2
2017-08-19T03:43:08.897Z,1000.2
2017-08-19T03:44:09.725Z,1000.2
2017-08-19T03:45:10.508Z,1000.3
2017-08-19T03:46:11.568Z,1000.3
2017-08-19T03:47:12.311Z,1000.3
2017-08-19T03:48:13.122Z,1000.3
2017-08-19T03:49:13.851Z,1000.3
2017-08-19T03:50:14.587Z,1000.3
2017-08-19T03:51:15.667Z,1000.3
2017-08-19T03:52:16.406Z,1000.3
2017-08-19T03:53:17.142Z,1000.3
2017-08-19T03:54:17.915Z,1000.3
2017-08-19T03:55:18.658Z,1000.3
2017-08-19T03:56:19.874Z,1000.3
2017-08-19T03:57:20.671Z,1000.3
2017-08-19T03:58:21.478Z,1000.4
2017-08-19T03:59:22.289Z,1000.3
2017-08-19T04:00:23.018Z,1000.4
2017-08-19T04:01:24.156Z,1000.3
2017-08-19T04:02:24.879Z,1000.3
2017-08-19T04:03:25.692Z,1000.3
2017-08-19T04:04:26.507Z,1000.3
2017-08-19T04:05:27.274Z,1000.3
2017-08-19T04:06:28.374Z,1000.3
2017-08-19T04:07:29.110Z,1000.3
2017-08-19T04:08:29.888Z,1000.3
2017-08-19T04:09:30.618Z,1000.4
2017-08-19T04:10:31.341Z,1000.4
2017-08-19T04:11:32.479Z,1000.4
2017-08-19T04:12:33.222Z,1000.4
2017-08-19T04:13:33.946Z,1000.4
2017-08-19T04:14:34.691Z,1000.4
2017-08-19T04:15:35.491Z,1000.4
2017-08-19T04:16:36.634Z,1000.4
2017-08-19T04:17:37.371Z,1000.4
2017-08-19T04:18:38.181Z,1000.4
2017-08-19T04:19:38.915Z,1000.4
2017-08-19T04:20:39.651Z,1000.4
2017-08-19T04:21:40.703Z,1000.4
2017-08-19T04:22:41.440Z,1000.4
2017-08-19T04:23:42.181Z,1000.4
2017-08-19T04:24:42.920Z,1000.4
2017-08-19T04:25:43.665Z,1000.4
2017-08-19T04:26:44.685Z,1000.3
2017-08-19T04:27:45.425Z,1000.4
2017-08-19T04:28:46.223Z,1000.3
2017-08-19T04:29:46.973Z,1000.4
2017-08-19T04:30:47.799Z,1000.4
2017-08-19T04:31:48.841Z,1000.4
2017-08-19T04:32:49.592Z,1000.4
2017-08-19T04:33:50.381Z,1000.5
2017-08-19T04:34:51.189Z,1000.4
2017-08-19T04:35:51.938Z,1000.4
2017-08-19T04:36:53.039Z,1000.5
2017-08-19T04:37:53.848Z,1000.5
2017-08-19T04:38:54.654Z,1000.4
2017-08-19T04:39:55.401Z,1000.5
2017-08-19T04:40:56.130Z,1000.5
2017-08-19T04:41:57.290Z,1000.5
2017-08-19T04:42:58.036Z,1000.5
2017-08-19T04:43:58.768Z,1000.6
2017-08-19T04:44:59.508Z,1000.5
2017-08-19T04:46:00.327Z,1000.5
2017-08-19T04:47:01.404Z,1000.5
2017-08-19T04:48:02.184Z,1000.5
2017-08-19T04:49:03.006Z,1000.6
2017-08-19T04:50:03.736Z,1000.6
2017-08-19T04:51:04.474Z,1000.6
2017-08-19T04:52:05.473Z,1000.6
2017-08-19T04:53:06.284Z,1000.6
2017-08-19T04:54:07.077Z,1000.6
2017-08-19T04:55:07.881Z,1000.6
2017-08-19T04:56:08.623Z,1000.6
2017-08-19T04:57:09.357Z,1000.6
2017-08-19T04:58:10.102Z,1000.6
2017-08-19T04:59:10.942Z,1000.6
2017-08-19T05:00:12.042Z,1000.6
2017-08-19T05:01:12.834Z,1000.6
2017-08-19T05:02:13.650Z,1000.6
2017-08-19T05:03:14.447Z,1000.6
2017-08-19T05:04:15.177Z,1000.7
2017-08-19T05:05:16.335Z,1000.6
2017-08-19T05:06:17.152Z,1000.6
2017-08-19T05:07:17.901Z,1000.6
2017-08-19T05:08:18.628Z,1000.6
2017-08-19T05:09:19.382Z,1000.6
2017-08-19T05:10:20.530Z,1000.7
2017-08-19T05:11:21.321Z,1000.6
2017-08-19T05:12:22.060Z,1000.6
2017-08-19T05:13:22.786Z,1000.6
2017-08-19T05:14:23.628Z,1000.6
2017-08-19T05:15:24.774Z,1000.7
2017-08-19T05:16:25.560Z,1000.6
2017-08-19T05:17:26.343Z,1000.6
2017-08-19T05:18:27.135Z,1000.7
2017-08-19T05:19:27.888Z,1000.6
2017-08-19T05:20:29.076Z,1000.7
2017-08-19T05:21:29.815Z,1000.7
2017-08-19T05:22:30.547Z,1000.7
2017-08-19T05:23:31.283Z,1000.7
2017-08-19T05:24:32.091Z,1000.8
2017-08-19T05:25:33.242Z,1000.7
2017-08-19T05:26:33.982Z,1000.7
2017-08-19T05:27:34.833Z,1000.7
2017-08-19T05:28:35.631Z,1000.7
2017-08-19T05:29:36.372Z,1000.7
2017-08-19T05:30:37.170Z,1000.7
2017-08-19T05:31:37.912Z,1000.7
2017-08-19T05:32:38.726Z,1000.7
2017-08-19T05:33:39.542Z,1000.7
2017-08-19T05:34:40.358Z,1000.7
2017-08-19T05:35:41.513Z,1000.7
2017-08-19T05:36:42.345Z,1000.7
2017-08-19T05:37:43.153Z,1000.7
2017-08-19T05:38:43.888Z,1000.7
2017-08-19T05:39:44.707Z,1000.7
2017-08-19T05:40:45.751Z,1000.7
2017-08-19T05:41:46.477Z,1000.7
2017-08-19T05:42:47.229Z,1000.7
2017-08-19T05:43:48.018Z,1000.7
2017-08-19T05:44:48.817Z,1000.7
2017-08-19T05:45:49.903Z,1000.7
2017-08-19T05:46:50.638Z,1000.8
2017-08-19T05:47:51.378Z,1000.8
2017-08-19T05:48:52.193Z,1000.8
2017-08-19T05:49:53.004Z,1000.8
2017-08-19T05:50:54.137Z,1000.8
2017-08-19T05:51:54.908Z,1000.8
2017-08-19T05:52:55.700Z,1000.9
2017-08-19T05:53:56.504Z,1000.8
2017-08-19T05:54:57.237Z,1000.9
2017-08-19T05:55:58.236Z,1000.9
2017-08-19T05:56:59.046Z,1000.9
2017-08-19T05:57:59.778Z,1000.8
2017-08-19T05:59:00.605Z,1001.0
2017-08-19T06:00:01.407Z,1000.9
2017-08-19T06:01:02.551Z,1000.9
2017-08-19T06:02:03.286Z,1000.9
2017-08-19T06:03:04.016Z,1000.9
2017-08-19T06:04:04.754Z,1001.0
2017-08-19T06:05:05.557Z,1001.0
2017-08-19T06:06:06.657Z,1001.0
2017-08-19T06:07:07.474Z,1001.0
2017-08-19T06:08:08.289Z,1001.1
2017-08-19T06:09:09.026Z,1001.0
2017-08-19T06:10:09.768Z,1001.0
2017-08-19T06:11:10.889Z,1001.1
2017-08-19T06:12:11.656Z,1001.0
2017-08-19T06:13:12.448Z,1001.1
2017-08-19T06:14:13.194Z,1001.1
2017-08-19T06:15:13.924Z,1001.2
2017-08-19T06:16:14.878Z,1001.1
2017-08-19T06:17:15.676Z,1001.1
2017-08-19T06:18:16.407Z,1001.1
2017-08-19T06:19:17.154Z,1001.1
2017-08-19T06:20:17.948Z,1001.2
2017-08-19T06:21:18.993Z,1001.1
2017-08-19T06:22:19.749Z,1001.1
2017-08-19T06:23:20.494Z,1001.2
2017-08-19T06:24:21.301Z,1001.1
2017-08-19T06:25:22.109Z,1001.2
2017-08-19T06:26:23.118Z,1001.1
2017-08-19T06:27:23.858Z,1001.1
2017-08-19T06:28:24.643Z,1001.2
2017-08-19T06:29:25.424Z,1001.1
2017-08-19T06:30:26.226Z,1001.1
2017-08-19T06:31:27.307Z,1001.1
2017-08-19T06:32:28.153Z,1001.1
2017-08-19T06:33:28.951Z,1001.0
2017-08-19T06:34:29.792Z,1001.1
2017-08-19T06:35:30.518Z,1001.1
2017-08-19T06:36:31.550Z,1001.1
2017-08-19T06:37:32.287Z,1001.0
2017-08-19T06:38:33.031Z,1001.0
2017-08-19T06:39:33.781Z,1001.0
2017-08-19T06:40:34.529Z,1000.9
2017-08-19T06:41:35.469Z,1000.9
2017-08-19T06:42:36.292Z,1000.9
2017-08-19T06:43:37.089Z,1000.9
2017-08-19T06:44:37.833Z,1000.9
2017-08-19T06:45:38.568Z,1000.8
2017-08-19T06:46:39.614Z,1000.9
2017-08-19T06:47:40.431Z,1000.8
2017-08-19T06:48:41.166Z,1000.8
2017-08-19T06:49:41.902Z,1000.9
2017-08-19T06:50:42.640Z,1000.8
2017-08-19T06:51:43.378Z,1000.9
2017-08-19T06:52:44.106Z,1000.8
2017-08-19T06:53:44.840Z,1000.8
2017-08-19T06:54:45.591Z,1000.8
2017-08-19T06:55:46.680Z,1000.8
2017-08-19T06:56:47.470Z,1000.8
2017-08-19T06:57:48.273Z,1000.8
2017-08-19T06:58:49.090Z,1000.8
2017-08-19T06:59:49.905Z,1000.8
2017-08-19T07:00:51.055Z,1000.8
2017-08-19T07:01:51.869Z,1000.7
2017-08-19T07:02:52.618Z,1000.7
2017-08-19T07:03:53.424Z,1000.8
2017-08-19T07:04:54.262Z,1000.7
2017-08-19T07:05:55.378Z,1000.7
2017-08-19T07:06:56.176Z,1000.8
2017-08-19T07:07:56.930Z,1000.8
2017-08-19T07:08:57.678Z,1000.8
2017-08-19T07:09:58.424Z,1000.7
2017-08-19T07:10:59.527Z,1000.7
2017-08-19T07:12:00.326Z,1000.7
2017-08-19T07:13:01.068Z,1000.7
2017-08-19T07:14:01.822Z,1000.8
2017-08-19T07:15:02.562Z,1000.7
2017-08-19T07:16:03.559Z,1000.8
2017-08-19T07:17:04.294Z,1000.8
2017-08-19T07:18:05.113Z,1000.9
2017-08-19T07:19:05.913Z,1000.8
2017-08-19T07:20:06.749Z,1000.8
2017-08-19T07:21:07.859Z,1000.9
2017-08-19T07:22:08.604Z,1000.9
2017-08-19T07:23:09.345Z,1000.9
2017-08-19T07:24:10.151Z,1000.9
2017-08-19T07:25:10.922Z,1000.8
2017-08-19T07:26:12.057Z,1000.8
2017-08-19T07:27:12.802Z,1000.9
2017-08-19T07:28:13.621Z,1000.9
2017-08-19T07:29:14.393Z,1000.9
2017-08-19T07:30:15.218Z,1000.9
2017-08-19T07:31:16.437Z,1000.9
2017-08-19T07:32:17.187Z,1001.0
2017-08-19T07:33:17.934Z,1001.0
2017-08-19T07:34:18.740Z,1001.0
2017-08-19T07:35:19.474Z,1000.9
2017-08-19T07:36:20.561Z,1001.0
2017-08-19T07:37:21.391Z,1000.9
2017-08-19T07:38:22.132Z,1001.0
2017-08-19T07:39:22.963Z,1000.9
2017-08-19T07:40:23.784Z,1000.9
2017-08-19T07:41:24.931Z,1001.0
2017-08-19T07:42:25.662Z,1001.1
2017-08-19T07:43:26.476Z,1001.0
2017-08-19T07:44:27.216Z,1001.1
2017-08-19T07:45:27.956Z,1001.1
2017-08-19T07:46:29.068Z,1001.1
2017-08-19T07:47:29.869Z,1001.0
2017-08-19T07:48:30.617Z,1001.1
2017-08-19T07:49:31.372Z,1001.1
2017-08-19T07:50:32.193Z,1001.0
2017-08-19T07:51:33.415Z,1001.0
2017-08-19T07:52:34.154Z,1001.0
2017-08-19T07:53:34.897Z,1001.2
2017-08-19T07:54:35.637Z,1001.1
2017-08-19T07:55:36.381Z,1000.9
2017-08-19T07:56:37.529Z,1001.0
2017-08-19T07:57:38.344Z,1000.9
2017-08-19T07:58:39.151Z,1000.9
2017-08-19T07:59:39.901Z,1000.9
2017-08-19T08:00:40.720Z,1000.9
2017-08-19T08:01:41.856Z,1000.9
2017-08-19T08:02:42.600Z,1001.0
2017-08-19T08:03:43.337Z,1001.0
2017-08-19T08:04:44.091Z,1001.0
2017-08-19T08:05:44.827Z,1001.0
2017-08-19T08:06:45.579Z,1001.0
2017-08-19T08:07:46.411Z,1001.0
2017-08-19T08:08:47.448Z,1001.0
2017-08-19T08:09:48.247Z,1001.0
2017-08-19T08:10:48.991Z,1001.1
2017-08-19T08:11:49.728Z,1001.1
2017-08-19T08:12:50.539Z,1001.1
2017-08-19T08:13:51.535Z,1001.1
2017-08-19T08:14:52.280Z,1001.1
2017-08-19T08:15:53.087Z,1001.1
2017-08-19T08:16:53.906Z,1001.1
2017-08-19T08:17:54.635Z,1001.1
2017-08-19T08:18:55.697Z,1001.0
2017-08-19T08:19:56.501Z,1001.1
2017-08-19T08:20:57.322Z,1001.1
2017-08-19T08:21:58.126Z,1001.1
2017-08-19T08:22:58.869Z,1001.1
2017-08-19T08:23:59.911Z,1001.1
2017-08-19T08:25:00.653Z,1001.1
2017-08-19T08:26:01.396Z,1001.1
2017-08-19T08:27:02.203Z,1001.1
2017-08-19T08:28:02.953Z,1001.1
2017-08-19T08:29:03.743Z,1001.0
2017-08-19T08:30:04.680Z,1001.2
2017-08-19T08:31:05.430Z,1001.2
2017-08-19T08:32:06.161Z,1001.1
2017-08-19T08:33:06.936Z,1001.2
2017-08-19T08:34:07.734Z,1001.2
2017-08-19T08:35:08.782Z,1001.2
2017-08-19T08:36:09.521Z,1001.1
2017-08-19T08:37:10.257Z,1001.1
2017-08-19T08:38:11.028Z,1001.2
2017-08-19T08:39:11.841Z,1001.1
2017-08-19T08:40:12.885Z,1001.1
2017-08-19T08:41:13.673Z,1001.1
2017-08-19T08:42:14.425Z,1001.1
2017-08-19T08:43:15.157Z,1001.2
2017-08-19T08:44:15.968Z,1001.2
2017-08-19T08:45:16.936Z,1001.2
2017-08-19T08:46:17.756Z,1001.1
2017-08-19T08:47:18.497Z,1001.1
2017-08-19T08:48:19.267Z,1001.1
2017-08-19T08:49:20.007Z,1001.2
2017-08-19T08:50:21.046Z,1001.2
2017-08-19T08:51:21.797Z,1001.2
2017-08-19T08:52:22.544Z,1001.1
2017-08-19T08:53:23.330Z,1001.2
2017-08-19T08:54:24.081Z,1001.2
2017-08-19T08:55:25.281Z,1001.2
2017-08-19T08:56:26.087Z,1001.1
2017-08-19T08:57:26.954Z,1001.2
2017-08-19T08:58:27.695Z,1001.2
2017-08-19T08:59:28.491Z,1001.2
2017-08-19T09:00:29.436Z,1001.2
2017-08-19T09:01:30.181Z,1001.2
2017-08-19T09:02:30.928Z,1001.2
2017-08-19T09:03:31.669Z,1001.2
2017-08-19T09:04:32.408Z,1001.2
2017-08-19T09:05:33.544Z,1001.3
2017-08-19T09:06:34.298Z,1001.3
2017-08-19T09:07:35.039Z,1001.2
2017-08-19T09:08:35.784Z,1001.3
2017-08-19T09:09:36.521Z,1001.3
2017-08-19T09:10:37.259Z,1001.3
2017-08-19T09:11:37.996Z,1001.3
2017-08-19T09:12:38.733Z,1001.2
2017-08-19T09:13:39.727Z,1001.2
2017-08-19T09:14:40.476Z,1001.3
2017-08-19T09:15:41.220Z,1001.3
2017-08-19T09:16:41.964Z,1001.2
2017-08-19T09:17:42.785Z,1001.2
2017-08-19T09:18:43.972Z,1001.2
2017-08-19T09:19:44.791Z,1001.2
2017-08-19T09:20:45.532Z,1001.2
2017-08-19T09:21:46.381Z,1001.3
2017-08-19T09:22:47.187Z,1001.2
2017-08-19T09:23:48.241Z,1001.2
2017-08-19T09:24:48.982Z,1001.2
2017-08-19T09:25:49.814Z,1001.2
2017-08-19T09:26:50.618Z,1001.3
2017-08-19T09:27:51.421Z,1001.3
2017-08-19T09:28:52.473Z,1001.3
2017-08-19T09:29:53.283Z,1001.3
2017-08-19T09:30:54.095Z,1001.3
2017-08-19T09:31:54.885Z,1001.3
2017-08-19T09:32:55.623Z,1001.3
2017-08-19T09:33:56.726Z,1001.2
2017-08-19T09:34:57.533Z,1001.3
2017-08-19T09:35:58.283Z,1001.3
2017-08-19T09:36:59.116Z,1001.2
2017-08-19T09:37:59.952Z,1001.2
2017-08-19T09:39:00.705Z,1001.2
2017-08-19T09:40:01.793Z,1001.2
2017-08-19T09:41:02.541Z,1001.2
2017-08-19T09:42:03.290Z,1001.2
2017-08-19T09:43:04.032Z,1001.3
2017-08-19T09:44:04.780Z,1001.2
2017-08-19T09:45:05.832Z,1001.3
2017-08-19T09:46:06.612Z,1001.3
2017-08-19T09:47:07.347Z,1001.3
2017-08-19T09:48:08.102Z,1001.3
2017-08-19T09:49:08.929Z,1001.3
2017-08-19T09:50:09.885Z,1001.3
2017-08-19T09:51:10.668Z,1001.3
2017-08-19T09:52:11.417Z,1001.3
2017-08-19T09:53:12.182Z,1001.3
2017-08-19T09:54:12.972Z,1001.3
2017-08-19T09:55:14.007Z,1001.3
2017-08-19T09:56:14.769Z,1001.3
2017-08-19T09:57:15.592Z,1001.3
2017-08-19T09:58:16.336Z,1001.3
2017-08-19T09:59:17.071Z,1001.4
2017-08-19T10:00:18.159Z,1001.3
2017-08-19T10:01:18.992Z,1001.4
2017-08-19T10:02:19.779Z,1001.4
2017-08-19T10:03:20.521Z,1001.4
2017-08-19T10:04:21.323Z,1001.4
2017-08-19T10:05:22.312Z,1001.5
2017-08-19T10:06:23.069Z,1001.4
2017-08-19T10:07:23.891Z,1001.4
2017-08-19T10:08:24.640Z,1001.4
2017-08-19T10:09:25.385Z,1001.4
2017-08-19T10:10:26.601Z,1001.4
2017-08-19T10:11:27.342Z,1001.5
2017-08-19T10:12:28.089Z,1001.5
2017-08-19T10:13:28.903Z,1001.4
2017-08-19T10:14:29.966Z,1001.4
2017-08-19T10:15:31.362Z,1001.4
2017-08-19T10:16:32.102Z,1001.6
2017-08-19T10:17:32.889Z,1001.6
2017-08-19T10:18:33.619Z,1001.5
2017-08-19T10:19:34.371Z,1001.5
2017-08-19T10:20:35.365Z,1001.4
2017-08-19T10:21:36.162Z,1001.5
2017-08-19T10:22:36.861Z,1001.5
2017-08-19T10:23:38.029Z,1001.5
2017-08-19T10:24:38.761Z,1001.4
2017-08-19T10:25:39.551Z,1001.5
2017-08-19T10:26:40.303Z,1001.6
2017-08-19T10:27:41.413Z,1001.5
2017-08-19T10:28:42.223Z,1001.6
2017-08-19T10:29:42.983Z,1001.6
2017-08-19T10:30:43.757Z,1001.6
2017-08-19T10:31:44.492Z,1001.5
2017-08-19T10:32:45.693Z,1001.5
2017-08-19T10:33:46.466Z,1001.6
2017-08-19T10:34:47.229Z,1001.6
2017-08-19T10:35:47.973Z,1001.6
2017-08-19T10:36:48.720Z,1001.6
2017-08-19T10:37:49.466Z,1001.6
2017-08-19T10:38:50.161Z,1001.7
2017-08-19T10:39:51.110Z,1001.6
2017-08-19T10:40:51.888Z,1001.7
2017-08-19T10:41:52.643Z,1001.7
2017-08-19T10:42:53.385Z,1001.8
2017-08-19T10:43:54.127Z,1001.7
2017-08-19T10:44:55.131Z,1001.7
2017-08-19T10:45:55.875Z,1001.7
2017-08-19T10:46:56.625Z,1001.7
2017-08-19T10:47:57.458Z,1001.7
2017-08-19T10:48:58.273Z,1001.7
2017-08-19T10:49:59.365Z,1001.8
2017-08-19T10:51:00.109Z,1001.7
2017-08-19T10:52:00.856Z,1001.8
2017-08-19T10:53:01.601Z,1001.7
2017-08-19T10:54:02.360Z,1001.7
2017-08-19T10:55:03.512Z,1001.7
2017-08-19T10:56:04.261Z,1001.8
2017-08-19T10:57:05.003Z,1001.8
2017-08-19T10:58:05.782Z,1001.9
2017-08-19T10:59:06.612Z,1001.9
2017-08-19T11:00:07.786Z,1001.8
2017-08-19T11:01:08.576Z,1001.8
2017-08-19T11:02:09.324Z,1001.8
2017-08-19T11:03:10.141Z,1001.9
2017-08-19T11:04:10.879Z,1001.9
2017-08-19T11:05:11.928Z,1001.9
2017-08-19T11:06:12.725Z,1001.9
2017-08-19T11:07:13.541Z,1001.9
2017-08-19T11:08:14.348Z,1001.9
2017-08-19T11:09:15.088Z,1001.8
2017-08-19T11:10:16.301Z,1001.8
2017-08-19T11:11:17.041Z,1001.8
2017-08-19T11:12:17.842Z,1002.0
2017-08-19T11:13:18.592Z,1001.9
2017-08-19T11:14:19.333Z,1001.9
2017-08-19T11:15:20.882Z,1002.0
2017-08-19T11:16:21.617Z,1002.0
2017-08-19T11:17:22.345Z,1002.0
2017-08-19T11:18:23.087Z,1002.0
2017-08-19T11:19:23.831Z,1002.0
2017-08-19T11:20:24.582Z,1002.0
2017-08-19T11:21:25.325Z,1002.0
2017-08-19T11:22:26.156Z,1001.9
2017-08-19T11:23:26.888Z,1002.0
2017-08-19T11:24:27.822Z,1002.0
2017-08-19T11:25:28.967Z,1002.0
2017-08-19T11:26:29.727Z,1002.0
2017-08-19T11:27:30.560Z,1002.1
2017-08-19T11:28:31.295Z,1002.0
2017-08-19T11:29:32.032Z,1002.1
2017-08-19T11:30:33.086Z,1002.1
2017-08-19T11:31:33.858Z,1002.1
2017-08-19T11:32:34.676Z,1002.1
2017-08-19T11:33:35.507Z,1002.1
2017-08-19T11:34:36.256Z,1002.2
2017-08-19T11:35:37.278Z,1002.2
2017-08-19T11:36:38.099Z,1002.1
2017-08-19T11:37:38.847Z,1002.2
2017-08-19T11:38:39.666Z,1002.2
2017-08-19T11:39:40.427Z,1002.2
2017-08-19T11:40:41.573Z,1002.3
2017-08-19T11:41:42.315Z,1002.2
2017-08-19T11:42:43.133Z,1002.2
2017-08-19T11:43:43.928Z,1002.3
2017-08-19T11:44:44.764Z,1002.2
2017-08-19T11:45:45.998Z,1002.3
2017-08-19T11:46:46.824Z,1002.3
2017-08-19T11:47:47.671Z,1002.2
2017-08-19T11:48:48.507Z,1002.2
2017-08-19T11:49:49.314Z,1002.2
2017-08-19T11:50:50.551Z,1002.2
2017-08-19T11:51:51.299Z,1002.2
2017-08-19T11:52:52.155Z,1002.2
2017-08-19T11:53:52.941Z,1002.2
2017-08-19T11:54:53.776Z,1002.3
2017-08-19T11:55:54.962Z,1002.2
2017-08-19T11:56:55.769Z,1002.3
2017-08-19T11:57:56.588Z,1002.2
2017-08-19T11:58:57.428Z,1002.2
2017-08-19T11:59:58.232Z,1002.2
2017-08-19T12:00:59.079Z,1002.2
2017-08-19T12:01:59.910Z,1002.2
2017-08-19T12:03:01.149Z,1002.2
2017-08-19T12:04:01.980Z,1002.2
2017-08-19T12:05:02.790Z,1002.1
2017-08-19T12:06:03.613Z,1002.1
2017-08-19T12:07:04.335Z,1002.2
2017-08-19T12:08:05.363Z,1002.2
2017-08-19T12:09:06.169Z,1002.2
2017-08-19T12:10:06.921Z,1002.2
2017-08-19T12:11:07.660Z,1002.2
2017-08-19T12:12:08.416Z,1002.3
2017-08-19T12:13:09.372Z,1002.2
2017-08-19T12:14:10.635Z,1002.2
2017-08-19T12:15:11.381Z,1002.3
2017-08-19T12:16:12.203Z,1002.2
2017-08-19T12:17:12.897Z,1002.4
2017-08-19T12:18:13.863Z,1002.4
2017-08-19T12:19:14.960Z,1002.2
2017-08-19T12:20:16.414Z,1002.2
2017-08-19T12:21:17.844Z,1002.3
2017-08-19T12:22:18.907Z,1002.2
2017-08-19T12:23:20.128Z,1002.2
2017-08-19T12:24:20.940Z,1002.2
2017-08-19T12:25:21.950Z,1002.2
2017-08-19T12:26:22.741Z,1002.2
2017-08-19T12:27:23.476Z,1002.2
2017-08-19T12:28:24.222Z,1002.3
2017-08-19T12:29:25.031Z,1002.3
2017-08-19T12:30:25.967Z,1002.3
2017-08-19T12:31:26.710Z,1002.2
2017-08-19T12:32:27.764Z,1002.1
2017-08-19T12:33:28.475Z,1002.3
2017-08-19T12:34:29.248Z,1002.3
2017-08-19T12:35:30.056Z,1002.3
2017-08-19T12:36:30.894Z,1002.3
2017-08-19T12:37:31.708Z,1002.3
2017-08-19T12:38:32.845Z,1002.2
2017-08-19T12:39:33.601Z,1002.2
2017-08-19T12:40:34.361Z,1002.2
2017-08-19T12:41:35.152Z,1002.2
2017-08-19T12:42:35.902Z,1002.2